Time;durP1;ratioP1;P1;durP2;ratioP2;P2;SDS_P1;SDS_P2;PMS_P1;PMS_P2;Temp;Humidity;BMP_temperature;BMP_pressure;BME280_temperature;BME280_humidity;BME280_pressure;Samples;Min_cycle;Max_cycle;Signal;HPM_P1;HPM_P2
2023/07/31 00:01:08;;;;;;;1.23;0.60;;;;;;;16.88;68.33;152935.28;10542425;28;20051;-72
2023/07/31 00:06:10;;;;;;;2.40;0.63;;;;;;;16.81;69.60;152917.13;10532853;28;20451;-72
2023/07/31 00:11:11;;;;;;;2.03;0.63;;;;;;;16.93;67.61;152946.97;10541477;28;20547;-71
2023/07/31 00:16:13;;;;;;;2.17;1.02;;;;;;;16.95;66.90;152950.84;10540388;28;20051;-72
2023/07/31 00:21:15;;;;;;;2.33;0.60;;;;;;;16.90;67.19;152939.16;10540258;28;20108;-72
2023/07/31 00:26:17;;;;;;;2.92;0.80;;;;;;;16.94;67.09;152948.25;10542257;28;20145;-71
2023/07/31 00:31:19;;;;;;;3.88;1.20;;;;;;;17.02;66.49;152969.03;10522663;28;20052;-72
2023/07/31 00:36:22;;;;;;;1.13;0.57;;;;;;;17.01;66.15;152967.72;10541055;28;20043;-72
2023/07/31 00:41:24;;;;;;;3.03;1.00;;;;;;;17.07;65.54;152983.28;10541650;28;20101;-72
2023/07/31 00:46:25;;;;;;;2.45;0.77;;;;;;;17.17;64.76;153006.63;10506992;28;20139;-73
2023/07/31 00:51:27;;;;;;;1.55;0.60;;;;;;;17.14;64.73;153001.47;10549484;28;20119;-73
2023/07/31 00:56:30;;;;;;;1.25;0.70;;;;;;;17.14;64.57;153001.47;10530647;28;20047;-72
2023/07/31 01:01:32;;;;;;;0.90;0.55;;;;;;;17.08;64.67;152984.56;10549546;28;20115;-72
2023/07/31 01:06:48;;;;;;;2.35;0.80;;;;;;;17.15;64.06;153002.75;10549909;28;20073;-74
2023/07/31 01:11:57;;;;;;;2.75;1.05;;;;;;;17.05;64.40;152978.13;10550469;28;20069;-73
2023/07/31 01:16:59;;;;;;;1.40;0.60;;;;;;;17.04;64.61;152975.47;10531629;28;20127;-72
2023/07/31 01:22:22;;;;;;;1.35;0.70;;;;;;;17.04;64.91;152975.47;10531584;28;20048;-72
2023/07/31 01:27:40;;;;;;;1.52;0.70;;;;;;;16.94;64.68;152949.56;10530961;28;20075;-74
2023/07/31 01:32:43;;;;;;;2.42;0.80;;;;;;;16.93;65.18;152946.97;10549219;28;20052;-74
2023/07/31 01:37:46;;;;;;;1.88;0.70;;;;;;;16.90;64.87;152940.47;10530663;28;20039;-74
2023/07/31 01:42:47;;;;;;;2.20;0.88;;;;;;;16.85;65.40;152926.22;10528369;28;20558;-74
2023/07/31 01:47:49;;;;;;;1.98;0.70;;;;;;;16.93;64.99;152945.69;10546721;28;20097;-74
2023/07/31 01:52:51;;;;;;;2.25;0.80;;;;;;;16.83;65.14;152922.34;10528517;28;20044;-74
2023/07/31 01:57:53;;;;;;;1.83;0.60;;;;;;;16.95;64.16;152950.84;10530259;28;20054;-74
2023/07/31 02:02:55;;;;;;;1.60;0.73;;;;;;;16.98;64.30;152958.66;10547790;28;20133;-74
2023/07/31 02:07:58;;;;;;;1.95;0.80;;;;;;;16.93;64.66;152945.69;10549453;28;20043;-74
2023/07/31 02:13:03;;;;;;;3.22;1.05;;;;;;;17.04;64.34;152974.19;10530001;28;20499;-74
2023/07/31 02:18:05;;;;;;;3.05;0.80;;;;;;;17.18;62.86;153009.22;10548160;28;20036;-73
2023/07/31 02:23:07;;;;;;;3.42;0.95;;;;;;;17.20;62.68;153015.72;10546605;28;20498;-73
2023/07/31 02:28:09;;;;;;;1.33;0.63;;;;;;;17.19;63.56;153011.84;10545078;28;20040;-75
2023/07/31 02:33:10;;;;;;;1.52;0.70;;;;;;;17.29;62.46;153039.06;10545888;28;20040;-73
2023/07/31 02:38:12;;;;;;;1.40;0.70;;;;;;;17.24;63.58;153024.81;10544523;28;20508;-73
2023/07/31 02:43:14;;;;;;;2.05;1.13;;;;;;;17.21;62.72;153018.31;10526148;28;20043;-73
2023/07/31 02:48:16;;;;;;;2.17;0.80;;;;;;;17.30;62.51;153040.38;10527414;28;20040;-72
2023/07/31 02:53:17;;;;;;;1.40;0.90;;;;;;;17.23;62.79;153022.22;10543945;28;20506;-74
2023/07/31 02:58:19;;;;;;;1.42;0.70;;;;;;;17.20;62.63;153014.44;10526952;28;20048;-73
2023/07/31 03:03:21;;;;;;;6.93;0.70;;;;;;;17.13;63.49;152997.53;10543927;28;20051;-74
2023/07/31 03:08:23;;;;;;;1.45;0.55;;;;;;;17.17;62.67;153006.63;10544382;28;20566;-74
2023/07/31 03:13:25;;;;;;;2.20;0.90;;;;;;;17.11;63.58;152993.66;10544913;28;20044;-73
2023/07/31 03:18:26;;;;;;;2.33;0.70;;;;;;;17.08;64.27;152985.88;10545148;28;20120;-73
2023/07/31 03:23:28;;;;;;;1.75;0.75;;;;;;;17.00;65.90;152965.16;10546011;28;20557;-75
2023/07/31 03:28:30;;;;;;;2.25;0.77;;;;;;;16.88;68.69;152934.00;10546801;28;20048;-76
2023/07/31 03:33:32;;;;;;;1.67;0.80;;;;;;;16.90;70.49;152939.16;10542968;28;20424;-75
2023/07/31 03:38:34;;;;;;;2.03;0.93;;;;;;;16.73;75.17;152895.06;10542616;28;20555;-76
2023/07/31 03:43:37;;;;;;;2.47;0.70;;;;;;;16.55;80.85;152850.91;10543314;28;20047;-75
2023/07/31 03:48:38;;;;;;;2.38;1.10;;;;;;;16.38;85.26;152808.16;10542646;28;20089;-76
2023/07/31 03:53:40;;;;;;;1.95;0.80;;;;;;;16.22;88.20;152766.66;10540901;28;20127;-75
2023/07/31 03:58:42;;;;;;;1.90;1.10;;;;;;;16.18;88.38;152755.00;10541817;28;20040;-76
2023/07/31 04:03:44;;;;;;;3.13;1.30;;;;;;;16.23;89.18;152767.97;10542255;28;20043;-76
2023/07/31 04:08:45;;;;;;;3.13;0.90;;;;;;;16.18;89.84;152755.00;10545847;28;20115;-76
2023/07/31 04:13:47;;;;;;;1.52;1.10;;;;;;;16.15;93.75;152749.78;10545989;28;20089;-76
2023/07/31 04:18:49;;;;;;;2.53;1.27;;;;;;;16.02;96.54;152714.78;10544043;28;20040;-75
2023/07/31 04:23:51;;;;;;;2.00;1.20;;;;;;;15.77;99.95;152651.31;10547667;28;20553;-74
2023/07/31 04:28:52;;;;;;;3.25;1.27;;;;;;;15.62;100.00;152614.94;10550662;28;20052;-75
2023/07/31 04:33:54;;;;;;;2.00;1.20;;;;;;;15.62;100.00;152613.63;10550532;28;20051;-72
2023/07/31 04:38:56;;;;;;;2.72;1.48;;;;;;;15.60;100.00;152608.47;10550821;28;20127;-72
2023/07/31 04:43:58;;;;;;;3.35;1.45;;;;;;;15.58;100.00;152604.59;10549580;28;20044;-73
2023/07/31 04:49:00;;;;;;;1.70;1.20;;;;;;;15.67;100.00;152626.69;10549757;28;20082;-71
2023/07/31 04:54:02;;;;;;;2.25;0.98;;;;;;;15.56;100.00;152599.41;10550087;28;20043;-71
2023/07/31 04:59:04;;;;;;;1.77;1.23;;;;;;;15.68;100.00;152627.97;10548433;28;20113;-71
2023/07/31 05:04:05;;;;;;;2.53;1.13;;;;;;;15.72;100.00;152638.34;10549137;28;20055;-71
2023/07/31 05:09:09;;;;;;;2.58;1.35;;;;;;;15.79;100.00;152656.47;10548130;28;20055;-73
2023/07/31 05:14:11;;;;;;;1.60;1.05;;;;;;;15.96;100.00;152699.25;10540000;28;20408;-70
2023/07/31 05:19:12;;;;;;;3.30;1.15;;;;;;;15.99;100.00;152708.34;10548025;28;20111;-72
2023/07/31 05:24:14;;;;;;;2.72;1.00;;;;;;;16.06;100.00;152725.16;10548365;28;20557;-72
2023/07/31 05:29:16;;;;;;;2.35;1.00;;;;;;;16.09;100.00;152732.97;10546775;28;20055;-72
2023/07/31 05:34:18;;;;;;;3.53;1.15;;;;;;;16.13;100.00;152743.31;10529978;28;20109;-72
2023/07/31 05:39:19;;;;;;;3.38;1.35;;;;;;;16.21;100.00;152764.09;10546514;28;20036;-72
2023/07/31 05:44:21;;;;;;;1.98;1.33;;;;;;;16.24;99.81;152771.81;10547418;28;20047;-72
2023/07/31 05:49:23;;;;;;;2.05;1.20;;;;;;;16.34;99.90;152797.78;10546415;28;20036;-71
2023/07/31 05:54:25;;;;;;;2.22;1.38;;;;;;;16.38;98.61;152806.88;10546579;28;20044;-71
2023/07/31 05:59:27;;;;;;;2.55;1.20;;;;;;;16.45;99.08;152825.00;10526935;28;20501;-71
2023/07/31 06:04:28;;;;;;;1.60;1.10;;;;;;;16.46;97.41;152826.28;10545260;28;20082;-72
2023/07/31 06:09:30;;;;;;;2.75;1.30;;;;;;;16.57;95.58;152854.84;10545305;28;20032;-71
2023/07/31 06:14:32;;;;;;;2.30;1.40;;;;;;;16.60;96.90;152862.59;10545003;28;20131;-72
2023/07/31 06:19:34;;;;;;;2.78;1.08;;;;;;;16.63;97.01;152870.38;10545037;28;20143;-72
2023/07/31 06:24:36;;;;;;;3.10;1.30;;;;;;;16.80;94.04;152914.53;10544653;28;20048;-71
2023/07/31 06:29:37;;;;;;;6.32;1.25;;;;;;;16.85;94.27;152927.50;10543626;28;20456;-72
2023/07/31 06:34:39;;;;;;;2.25;1.25;;;;;;;17.00;92.15;152963.81;10544857;28;20040;-72
2023/07/31 06:39:41;;;;;;;3.08;1.30;;;;;;;17.01;94.17;152967.72;10560909;22;20118;-67
2023/07/31 06:44:42;;;;;;;1.77;1.10;;;;;;;16.93;94.31;152946.97;10583773;28;20500;-67
2023/07/31 06:49:44;;;;;;;2.22;1.13;;;;;;;16.95;94.50;152950.84;10585019;28;20119;-67
2023/07/31 06:55:01;;;;;;;2.28;1.30;;;;;;;17.17;92.80;153007.91;10584844;28;20047;-68
2023/07/31 07:00:04;;;;;;;1.63;1.00;;;;;;;17.16;91.87;153005.34;10584317;28;20549;-67
2023/07/31 07:05:06;;;;;;;1.85;1.17;;;;;;;17.29;89.70;153037.78;10565857;28;20119;-67
2023/07/31 07:10:09;;;;;;;1.83;0.98;;;;;;;17.45;88.89;153078.03;10584467;28;20039;-70
2023/07/31 07:15:11;;;;;;;3.40;1.50;;;;;;;17.52;87.79;153096.16;10565902;28;20040;-69
2023/07/31 07:20:13;;;;;;;2.42;1.40;;;;;;;17.71;86.54;153144.16;10566013;28;20040;-69
2023/07/31 07:25:14;;;;;;;1.63;1.30;;;;;;;17.86;83.10;153184.47;10565795;28;20040;-69
2023/07/31 07:30:17;;;;;;;2.22;1.40;;;;;;;17.99;82.93;153215.63;10565974;28;20040;-69
2023/07/31 07:35:19;;;;;;;2.03;1.10;;;;;;;18.21;81.87;153271.47;10583668;28;20511;-69
2023/07/31 07:40:21;;;;;;;4.15;1.60;;;;;;;18.20;82.49;153270.16;10582893;28;20096;-69
2023/07/31 07:45:23;;;;;;;2.00;1.10;;;;;;;18.39;79.87;153318.19;10564833;28;20070;-69
2023/07/31 07:50:25;;;;;;;1.67;0.90;;;;;;;18.37;77.04;153312.97;10582767;28;20105;-70
2023/07/31 07:55:26;;;;;;;2.22;1.10;;;;;;;18.41;79.38;153323.34;10582270;28;20505;-70
2023/07/31 08:00:28;;;;;;;2.13;1.23;;;;;;;18.54;77.63;153357.13;10582049;28;20047;-70
2023/07/31 08:05:33;;;;;;;2.17;1.45;;;;;;;18.74;77.11;153407.84;10582817;28;20043;-70
2023/07/31 08:10:35;;;;;;;1.77;1.17;;;;;;;18.86;74.63;153437.72;10564020;28;20489;-68
2023/07/31 08:15:37;;;;;;;2.17;1.00;;;;;;;19.05;73.02;153487.06;10564006;28;20560;-68
2023/07/31 08:20:39;;;;;;;3.65;1.25;;;;;;;19.24;73.49;153535.13;10581744;28;20039;-68
2023/07/31 08:25:41;;;;;;;2.63;1.30;;;;;;;19.36;71.51;153566.31;10564139;28;20047;-68
2023/07/31 08:30:42;;;;;;;2.55;1.25;;;;;;;19.38;70.42;153570.19;10563550;28;20036;-68
2023/07/31 08:35:44;;;;;;;3.72;1.30;;;;;;;19.19;70.49;153520.84;10581874;28;20464;-68
2023/07/31 08:40:46;;;;;;;2.72;1.05;;;;;;;19.06;72.56;153488.38;10581695;28;20459;-69
2023/07/31 08:45:48;;;;;;;2.25;1.30;;;;;;;19.07;71.84;153492.25;10581227;28;20055;-70
2023/07/31 08:50:53;;;;;;;2.25;1.30;;;;;;;18.99;71.31;153470.16;10562664;28;20071;-67
2023/07/31 08:55:58;;;;;;;1.90;1.25;;;;;;;18.87;72.27;153440.31;10574948;28;20123;-67
2023/07/31 09:01:03;;;;;;;3.05;1.33;;;;;;;19.00;70.39;153474.09;10539204;28;20040;-68
2023/07/31 09:06:06;;;;;;;3.22;1.25;;;;;;;18.96;71.09;153463.69;10552660;28;20441;-68
2023/07/31 09:11:08;;;;;;;2.20;1.38;;;;;;;18.93;71.26;153454.59;10587280;28;20124;-67
2023/07/31 09:16:10;;;;;;;2.05;1.17;;;;;;;18.99;68.44;153470.16;10588288;28;20097;-68
2023/07/31 09:21:11;;;;;;;2.75;1.38;;;;;;;19.01;70.69;153476.69;10589285;28;20131;-67
2023/07/31 09:26:30;;;;;;;2.60;1.27;;;;;;;19.08;67.90;153494.88;10548550;28;20115;-68
2023/07/31 09:31:42;;;;;;;1.52;1.10;;;;;;;19.12;69.29;153503.94;10546713;28;20040;-68
2023/07/31 09:36:46;;;;;;;4.25;1.40;;;;;;;19.13;69.88;153507.88;10527416;28;20089;-68
2023/07/31 09:41:55;;;;;;;1.58;1.30;;;;;;;19.12;68.64;153503.94;10545659;28;20048;-67
2023/07/31 09:46:56;;;;;;;2.15;1.00;;;;;;;19.18;66.72;153518.25;10545767;28;20044;-67
2023/07/31 09:51:58;;;;;;;1.75;1.10;;;;;;;19.24;67.70;153533.84;10545444;28;20047;-69
2023/07/31 09:57:00;;;;;;;1.70;1.30;;;;;;;19.26;67.79;153540.34;10538262;28;20043;-67
2023/07/31 10:02:02;;;;;;;2.28;1.30;;;;;;;19.42;67.05;153580.59;10586311;28;20074;-68
2023/07/31 10:07:04;;;;;;;2.63;1.55;;;;;;;19.37;68.58;153567.63;10586792;28;20582;-68
2023/07/31 10:12:11;;;;;;;2.03;1.45;;;;;;;19.57;67.88;153618.31;10587660;28;20062;-67
2023/07/31 10:17:14;;;;;;;2.38;1.42;;;;;;;19.55;67.08;153614.38;10587127;28;20050;-67
2023/07/31 10:22:18;;;;;;;3.50;1.33;;;;;;;19.75;66.18;153663.84;10585277;28;20047;-68
2023/07/31 10:27:20;;;;;;;1.85;1.45;;;;;;;19.84;65.12;153687.22;10567620;28;20069;-68
2023/07/31 10:32:23;;;;;;;2.20;1.17;;;;;;;19.86;65.73;153693.72;10586896;28;20131;-69
2023/07/31 10:37:30;;;;;;;2.00;1.10;;;;;;;20.01;66.57;153730.09;10586302;28;20046;-67
2023/07/31 10:42:38;;;;;;;2.20;1.30;;;;;;;20.31;63.54;153808.09;10585771;28;20152;-69
2023/07/31 10:47:45;;;;;;;2.30;1.65;;;;;;;20.39;63.00;153827.59;10586071;28;20039;-67
2023/07/31 10:52:52;;;;;;;1.20;1.10;;;;;;;20.50;62.19;153856.28;10584807;28;20093;-68
2023/07/31 10:57:56;;;;;;;1.33;1.13;;;;;;;20.46;61.78;153844.53;10585040;28;20067;-68
2023/07/31 11:03:11;;;;;;;2.30;1.83;;;;;;;20.56;63.19;153870.56;10566737;28;20050;-68
2023/07/31 11:08:24;;;;;;;1.33;1.10;;;;;;;20.54;61.26;153866.69;10577310;28;20435;-67
2023/07/31 11:13:25;;;;;;;3.25;2.33;;;;;;;20.57;62.78;153874.47;10548491;28;20040;-68
2023/07/31 11:18:27;;;;;;;1.83;1.10;;;;;;;20.50;62.67;153855.00;10565818;28;20401;-68
2023/07/31 11:23:30;;;;;;;2.17;1.25;;;;;;;20.52;64.84;153860.16;10583654;28;20119;-68
2023/07/31 11:28:34;;;;;;;1.60;1.00;;;;;;;20.37;67.81;153823.72;10545889;28;20043;-68
2023/07/31 11:33:35;;;;;;;1.40;0.95;;;;;;;20.34;66.56;153814.59;10542089;28;20043;-68
2023/07/31 11:38:37;;;;;;;1.23;0.98;;;;;;;20.64;67.09;153892.69;10541739;28;20123;-68
2023/07/31 11:43:39;;;;;;;2.10;1.15;;;;;;;21.16;67.18;154025.34;10561983;28;20043;-68
2023/07/31 11:48:41;;;;;;;1.73;0.90;;;;;;;21.69;65.36;154159.38;10581422;28;20043;-69
2023/07/31 11:53:47;;;;;;;1.35;0.80;;;;;;;21.97;61.40;154230.97;10570177;28;20401;-69
2023/07/31 11:58:53;;;;;;;0.93;0.80;;;;;;;22.25;61.84;154301.31;10569571;28;20040;-68
2023/07/31 12:03:56;;;;;;;0.90;0.80;;;;;;;22.49;58.46;154363.81;10543002;28;20122;-68
2023/07/31 12:09:03;;;;;;;2.10;1.05;;;;;;;22.24;57.71;154298.72;10549039;28;20052;-68
2023/07/31 12:14:05;;;;;;;1.50;1.00;;;;;;;22.86;57.48;154458.84;10563567;28;20048;-68
2023/07/31 12:19:07;;;;;;;1.88;1.35;;;;;;;22.98;55.21;154488.88;10560900;28;20067;-68
2023/07/31 12:24:09;;;;;;;1.40;0.90;;;;;;;22.95;55.07;154481.03;10556241;28;20044;-68
2023/07/31 12:29:11;;;;;;;2.03;0.90;;;;;;;22.82;54.49;154447.13;10565218;28;20477;-68
2023/07/31 12:34:18;;;;;;;2.20;1.40;;;;;;;23.20;53.11;154544.88;10579878;28;20052;-68
2023/07/31 12:39:20;;;;;;;1.98;1.10;;;;;;;23.73;49.17;154679.06;10493482;28;1276872;-68
2023/07/31 12:44:22;;;;;;;2.17;1.17;;;;;;;23.63;51.21;154655.56;10602111;22;20048;-82
2023/07/31 12:49:24;;;;;;;2.28;1.30;;;;;;;24.00;51.10;154748.16;10611915;28;20067;-81
2023/07/31 12:54:25;;;;;;;1.35;1.10;;;;;;;23.65;48.80;154659.56;10612473;28;20075;-82
2023/07/31 12:59:27;;;;;;;2.22;1.00;;;;;;;23.44;49.52;154606.06;10614107;28;20107;-82
2023/07/31 13:04:29;;;;;;;1.27;0.98;;;;;;;23.24;51.40;154553.94;10610013;28;20075;-81
2023/07/31 13:09:30;;;;;;;2.22;1.30;;;;;;;23.38;50.43;154590.47;10609792;28;20065;-81
2023/07/31 13:14:32;;;;;;;1.25;0.82;;;;;;;23.28;52.33;154565.66;10591412;28;20052;-83
2023/07/31 13:19:34;;;;;;;1.73;1.25;;;;;;;23.14;50.84;154529.22;10611954;28;20114;-83
2023/07/31 13:24:35;;;;;;;1.63;0.93;;;;;;;23.14;50.22;154530.50;10592880;28;20040;-81
2023/07/31 13:29:37;;;;;;;1.65;1.27;;;;;;;23.10;50.12;154520.09;10592423;28;20536;-82
2023/07/31 13:34:39;;;;;;;1.35;1.13;;;;;;;22.97;51.06;154486.22;10610826;28;20047;-83
2023/07/31 13:39:42;;;;;;;1.45;1.10;;;;;;;23.23;49.31;154551.34;10612319;28;20488;-82
2023/07/31 13:44:43;;;;;;;1.25;0.90;;;;;;;23.41;49.31;154598.25;10611468;28;20450;-84
2023/07/31 13:49:45;;;;;;;1.77;1.10;;;;;;;23.63;50.43;154655.56;10611543;28;20028;-83
2023/07/31 13:54:49;;;;;;;1.20;1.10;;;;;;;23.54;48.64;154632.13;10593477;28;20043;-82
2023/07/31 13:59:51;;;;;;;2.25;1.13;;;;;;;23.63;49.51;154655.56;10594103;28;20519;-81
2023/07/31 14:04:53;;;;;;;1.90;1.15;;;;;;;23.85;47.54;154711.63;10594200;28;20047;-83
2023/07/31 14:09:55;;;;;;;1.30;0.98;;;;;;;23.87;48.36;154715.59;10622608;27;20048;-81
2023/07/31 14:14:56;;;;;;;1.27;1.00;;;;;;;23.70;48.21;154672.56;10630844;28;20051;-79
2023/07/31 14:19:59;;;;;;;1.52;1.40;;;;;;;23.56;47.67;154637.34;10632310;27;20047;-83
2023/07/31 14:25:01;;;;;;;3.95;1.20;;;;;;;23.60;48.55;154646.47;10614403;28;20070;-84
2023/07/31 14:30:04;;;;;;;1.60;1.05;;;;;;;23.90;47.97;154724.66;10595911;28;20108;-83
2023/07/31 14:35:06;;;;;;;1.52;0.95;;;;;;;23.99;46.98;154746.81;10615664;28;20484;-81
2023/07/31 14:40:08;;;;;;;2.20;1.30;;;;;;;23.93;47.62;154731.19;10613364;28;20086;-83
2023/07/31 14:45:11;;;;;;;1.17;0.90;;;;;;;23.78;47.10;154692.13;10632868;27;20069;-79
2023/07/31 14:50:12;;;;;;;1.48;1.10;;;;;;;23.61;51.59;154650.38;10627521;27;20019;-84
2023/07/31 14:55:14;;;;;;;1.73;1.23;;;;;;;23.62;47.98;154651.66;10616525;27;20027;-83
2023/07/31 15:00:16;;;;;;;1.17;0.82;;;;;;;23.89;46.99;154722.06;10629424;28;20089;-81
2023/07/31 15:05:18;;;;;;;3.22;1.25;;;;;;;23.86;47.86;154712.94;10630099;28;20062;-79
2023/07/31 15:10:20;;;;;;;1.20;0.90;;;;;;;23.69;48.51;154668.69;10606327;28;20494;-82
2023/07/31 15:15:37;;;;;;;1.35;1.10;;;;;;;23.24;49.30;154553.94;10585641;28;20043;-84
2023/07/31 15:21:10;;;;;;;1.48;1.10;;;;;;;23.26;49.27;154560.47;10474615;28;20065;-85
2023/07/31 15:26:11;;;;;;;2.13;1.10;;;;;;;23.36;49.50;154585.22;10482867;28;20103;-85
2023/07/31 15:31:13;;;;;;;2.22;1.20;;;;;;;23.24;50.49;154553.94;10485519;28;20560;-84
2023/07/31 15:36:17;;;;;;;2.35;1.33;;;;;;;23.08;50.02;154514.91;10476063;28;20059;-84
2023/07/31 15:41:19;;;;;;;2.88;1.60;;;;;;;22.92;51.72;154474.50;10477813;28;20107;-83
2023/07/31 15:46:23;;;;;;;2.60;1.48;;;;;;;22.95;51.19;154481.03;10480405;28;20095;-84
2023/07/31 15:51:25;;;;;;;2.00;1.30;;;;;;;22.95;51.53;154481.03;10475753;28;20049;-82
2023/07/31 15:56:26;;;;;;;1.80;1.10;;;;;;;22.80;51.35;154441.91;10501304;28;20059;-85
2023/07/31 16:01:28;;;;;;;1.52;1.20;;;;;;;22.74;51.93;154427.59;10605059;28;20108;-84
2023/07/31 16:06:30;;;;;;;1.45;1.25;;;;;;;22.57;51.23;154384.59;10601569;28;20102;-82
2023/07/31 16:11:32;;;;;;;1.90;1.15;;;;;;;22.57;50.53;154383.31;10604002;28;20040;-82
2023/07/31 16:16:34;;;;;;;1.95;1.48;;;;;;;22.44;49.68;154350.75;10585134;28;20055;-83
2023/07/31 16:21:36;;;;;;;2.15;1.20;;;;;;;22.37;49.76;154332.56;10604898;28;20066;-83
2023/07/31 16:26:37;;;;;;;1.50;1.13;;;;;;;22.30;49.25;154315.59;10605413;28;20100;-83
2023/07/31 16:31:40;;;;;;;2.95;1.20;;;;;;;22.25;50.24;154302.59;10603020;28;20036;-84
2023/07/31 16:36:57;;;;;;;1.20;1.00;;;;;;;22.21;50.09;154290.88;10606169;28;20049;-83
2023/07/31 16:41:59;;;;;;;1.52;1.20;;;;;;;22.22;49.49;154294.78;10588779;28;20043;-83
2023/07/31 16:47:01;;;;;;;2.38;1.42;;;;;;;22.03;50.21;154245.28;10607683;28;20039;-82
2023/07/31 16:52:03;;;;;;;2.33;1.42;;;;;;;21.99;50.71;154236.16;10585389;28;20044;-83
2023/07/31 16:57:05;;;;;;;2.47;1.80;;;;;;;21.92;52.17;154217.97;10606081;28;20404;-82
2023/07/31 17:02:07;;;;;;;2.95;1.20;;;;;;;21.93;52.27;154220.56;10605157;28;20074;-82
2023/07/31 17:07:10;;;;;;;3.05;1.80;;;;;;;22.12;51.95;154270.06;10596427;28;20424;-84
2023/07/31 17:12:12;;;;;;;3.17;1.42;;;;;;;22.06;51.69;154253.09;10603058;28;20480;-84
2023/07/31 17:17:14;;;;;;;2.40;1.35;;;;;;;21.88;52.42;154208.84;10604137;28;20067;-84
2023/07/31 17:22:15;;;;;;;2.50;1.38;;;;;;;21.85;52.05;154199.72;10584421;28;20043;-85
2023/07/31 17:27:17;;;;;;;2.10;1.50;;;;;;;21.84;52.65;154198.44;10602121;28;20493;-82
2023/07/31 17:32:20;;;;;;;2.08;1.15;;;;;;;21.96;52.56;154228.38;10609356;28;20535;-84
2023/07/31 17:37:25;;;;;;;;;;;;;;;21.88;52.91;154208.84;10591186;28;20062;-82
2023/07/31 17:42:26;;;;;;;2.22;1.30;;;;;;;21.86;54.06;154203.63;10592934;28;19966;-83
2023/07/31 17:47:28;;;;;;;2.25;1.20;;;;;;;21.85;53.38;154201.03;10589651;28;20115;-84
2023/07/31 17:52:30;;;;;;;5.28;1.25;;;;;;;22.00;53.12;154238.81;10608660;28;20044;-84
2023/07/31 17:57:32;;;;;;;2.67;1.48;;;;;;;21.99;53.62;154234.88;10616472;28;20112;-82
2023/07/31 18:02:35;;;;;;;2.13;1.30;;;;;;;21.74;55.37;154171.13;10615603;28;20048;-82
2023/07/31 18:07:37;;;;;;;1.73;1.50;;;;;;;21.63;56.68;154145.06;10595011;28;20554;-83
2023/07/31 18:12:39;;;;;;;2.20;1.45;;;;;;;21.42;56.45;154091.72;10610189;28;20062;-83
2023/07/31 18:17:40;;;;;;;2.50;1.40;;;;;;;21.67;55.22;154154.19;10611661;28;20038;-83
2023/07/31 18:22:42;;;;;;;2.53;1.70;;;;;;;21.35;58.07;154072.22;10610581;28;20061;-84
2023/07/31 18:27:44;;;;;;;2.28;1.60;;;;;;;21.37;57.21;154078.72;10610895;28;20059;-82
2023/07/31 18:32:46;;;;;;;2.35;1.40;;;;;;;21.22;58.84;154038.34;10608909;28;20122;-82
2023/07/31 18:37:47;;;;;;;2.08;1.75;;;;;;;20.97;60.05;153975.91;10608411;28;20046;-82
2023/07/31 18:42:49;;;;;;;1.65;1.33;;;;;;;20.75;61.82;153918.69;10585564;28;20074;-85
2023/07/31 18:47:51;;;;;;;2.13;1.50;;;;;;;20.64;62.35;153891.38;10560640;28;20078;-83
2023/07/31 18:52:53;;;;;;;3.90;1.80;;;;;;;20.59;63.50;153878.38;10599017;28;20040;-85
2023/07/31 18:57:55;;;;;;;2.47;1.35;;;;;;;20.63;62.48;153890.09;10563807;28;20040;-84
2023/07/31 19:02:57;;;;;;;2.67;1.80;;;;;;;20.62;64.21;153886.16;10583319;28;20096;-84
2023/07/31 19:08:04;;;;;;;2.35;1.75;;;;;;;20.76;62.34;153922.59;10583663;28;20583;-82
2023/07/31 19:13:06;;;;;;;2.85;1.60;;;;;;;20.53;63.33;153864.06;10582173;28;20066;-84
2023/07/31 19:18:08;;;;;;;2.30;1.90;;;;;;;20.40;64.05;153831.50;10580576;28;20107;-84
2023/07/31 19:23:10;;;;;;;2.38;1.73;;;;;;;20.50;64.72;153855.00;10601281;28;20094;-84
2023/07/31 19:28:13;;;;;;;2.53;1.90;;;;;;;20.49;64.88;153853.66;10582872;28;20446;-84
2023/07/31 19:33:15;;;;;;;3.22;1.60;;;;;;;20.46;63.96;153845.81;10599679;28;20071;-84
2023/07/31 19:38:17;;;;;;;1.73;1.52;;;;;;;20.32;65.47;153809.38;10583115;28;20079;-85
2023/07/31 19:43:19;;;;;;;2.45;1.52;;;;;;;20.14;66.12;153765.22;10581762;28;20048;-86
2023/07/31 19:48:21;;;;;;;2.30;1.92;;;;;;;20.33;63.40;153813.31;10597487;28;20115;-86
2023/07/31 19:53:23;;;;;;;2.78;1.90;;;;;;;20.22;66.92;153784.69;10564228;28;20048;-85
2023/07/31 19:58:25;;;;;;;3.00;2.20;;;;;;;20.00;67.78;153727.50;10563638;28;20067;-84
2023/07/31 20:03:27;;;;;;;2.15;1.70;;;;;;;19.88;68.59;153697.63;10599510;28;20067;-83
2023/07/31 20:08:28;;;;;;;3.90;2.67;;;;;;;19.87;69.10;153695.00;10597553;28;20122;-83
2023/07/31 20:13:31;;;;;;;2.63;2.20;;;;;;;19.80;70.65;153678.13;10561715;28;20052;-84
2023/07/31 20:18:32;;;;;;;3.00;1.98;;;;;;;19.72;70.72;153657.31;10595472;28;20082;-84
2023/07/31 20:23:34;;;;;;;2.47;2.28;;;;;;;19.79;69.24;153674.19;10578553;28;20050;-85
2023/07/31 20:28:44;;;;;;;2.17;1.65;;;;;;;20.01;66.02;153730.09;10583518;28;20046;-82
2023/07/31 20:33:46;;;;;;;2.75;1.65;;;;;;;20.16;63.87;153769.13;10595420;28;20056;-80
2023/07/31 20:38:48;;;;;;;1.98;1.48;;;;;;;20.32;62.80;153809.38;10617012;28;20043;-82
2023/07/31 20:43:50;;;;;;;2.42;1.90;;;;;;;20.33;62.16;153812.03;10612377;28;20056;-81
2023/07/31 20:48:52;;;;;;;2.33;1.67;;;;;;;20.37;62.08;153822.44;10620071;28;20044;-80
2023/07/31 20:53:53;;;;;;;4.15;1.58;;;;;;;20.45;61.59;153843.19;10631638;27;20028;-80
2023/07/31 20:58:55;;;;;;;2.88;1.80;;;;;;;20.62;60.69;153886.16;10618858;28;20040;-83
2023/07/31 21:03:57;;;;;;;2.70;1.40;;;;;;;20.59;60.10;153879.69;10574823;28;20051;-85
2023/07/31 21:08:59;;;;;;;2.63;1.55;;;;;;;20.55;60.94;153869.28;10582046;28;20040;-85
2023/07/31 21:14:01;;;;;;;3.40;1.90;;;;;;;20.48;61.17;153849.75;10598036;28;20070;-85
2023/07/31 21:19:03;;;;;;;3.53;1.83;;;;;;;20.46;61.13;153845.81;10597346;28;20078;-84
2023/07/31 21:24:05;;;;;;;2.40;1.50;;;;;;;20.35;61.40;153817.19;10580138;28;20065;-85
2023/07/31 21:29:06;;;;;;;2.17;1.60;;;;;;;20.22;62.05;153783.41;10563229;28;20042;-85
2023/07/31 21:34:08;;;;;;;2.22;1.52;;;;;;;20.14;63.50;153765.22;10598665;28;20385;-84
2023/07/31 21:39:10;;;;;;;6.40;1.92;;;;;;;20.27;61.64;153796.38;10597201;28;20050;-84
2023/07/31 21:44:12;;;;;;;2.47;1.63;;;;;;;20.24;62.08;153789.91;10597732;28;20107;-84
2023/07/31 21:49:14;;;;;;;3.08;1.48;;;;;;;20.14;62.62;153763.88;10562953;28;20071;-85
2023/07/31 21:54:16;;;;;;;2.45;1.63;;;;;;;20.22;62.05;153783.41;10565029;28;20052;-84
2023/07/31 21:59:17;;;;;;;4.82;2.17;;;;;;;20.24;61.91;153788.63;10587229;28;20052;-85
2023/07/31 22:04:19;;;;;;;2.15;1.30;;;;;;;20.34;61.19;153814.59;10581697;28;20042;-83
2023/07/31 22:09:22;;;;;;;2.60;1.42;;;;;;;20.38;61.51;153825.03;10565371;28;20153;-86
2023/07/31 22:14:24;;;;;;;1.98;1.40;;;;;;;20.30;61.97;153804.22;10580947;28;20123;-85
2023/07/31 22:19:25;;;;;;;1.52;1.20;;;;;;;20.36;61.50;153819.78;10597311;28;20040;-85
2023/07/31 22:24:27;;;;;;;1.95;1.48;;;;;;;20.39;61.36;153828.91;10562210;28;20119;-84
2023/07/31 22:29:29;;;;;;;2.90;1.40;;;;;;;20.38;61.58;153825.03;10563123;28;20040;-85
2023/07/31 22:34:32;;;;;;;2.55;1.40;;;;;;;20.44;62.10;153839.31;10571564;28;20047;-85
2023/07/31 22:39:35;;;;;;;2.45;1.42;;;;;;;20.52;61.33;153861.47;10562555;28;20044;-84
2023/07/31 22:44:37;;;;;;;1.45;1.30;;;;;;;20.38;62.28;153825.03;10579690;28;20142;-86
2023/07/31 22:49:38;;;;;;;2.13;1.85;;;;;;;20.42;62.06;153835.44;10577147;28;20126;-85
2023/07/31 22:54:40;;;;;;;3.75;1.88;;;;;;;20.38;63.45;153825.03;10577629;28;20075;-84
2023/07/31 22:59:42;;;;;;;2.08;1.48;;;;;;;20.34;63.72;153814.59;10561208;28;20058;-86
2023/07/31 23:04:44;;;;;;;3.05;1.30;;;;;;;20.12;64.91;153760.00;10580815;28;20043;-83
2023/07/31 23:09:46;;;;;;;2.38;1.40;;;;;;;20.12;66.10;153760.00;10603148;28;20073;-84